createdAt,value
2023-04-18T00:01:19.628Z,51.68
2023-04-18T00:16:20.118Z,46.30
2023-04-18T00:31:20.428Z,41.72
2023-04-18T00:46:20.377Z,43.48
2023-04-18T01:01:20.821Z,46.89
2023-04-18T01:16:20.603Z,46.60
2023-04-18T01:31:20.808Z,45.79
2023-04-18T01:46:21.335Z,42.19
2023-04-18T02:01:21.949Z,40.73
2023-04-18T02:16:22.438Z,38.96
2023-04-18T02:31:22.512Z,40.82
2023-04-18T02:46:22.757Z,44.12
2023-04-18T03:01:23.493Z,44.14
2023-04-18T03:16:23.368Z,43.41
2023-04-18T03:31:23.912Z,44.55
2023-04-18T03:46:23.568Z,45.20
2023-04-18T04:01:24.060Z,44.47
2023-04-18T04:16:24.191Z,44.16
2023-04-18T04:31:24.491Z,44.14
2023-04-18T04:46:25.355Z,44.64
2023-04-18T05:01:25.675Z,45.05
2023-04-18T05:16:26.685Z,43.87
2023-04-18T05:31:26.481Z,51.89
2023-04-18T05:46:26.429Z,59.41
2023-04-18T06:01:26.984Z,85.92
2023-04-18T06:16:27.031Z,99.99
2023-04-18T06:31:27.222Z,99.99
2023-04-18T06:46:27.886Z,99.99
2023-04-18T07:01:29.051Z,99.99
2023-04-18T07:16:30.269Z,99.99
2023-04-18T07:31:31.455Z,99.41
2023-04-18T07:46:32.709Z,92.41
2023-04-18T08:01:33.842Z,88.75
2023-04-18T08:16:34.354Z,83.83
2023-04-18T08:31:35.473Z,87.24
2023-04-18T08:46:37.096Z,88.34
2023-04-18T09:01:37.434Z,89.77
2023-04-18T09:16:37.964Z,92.55
2023-04-18T09:31:38.295Z,93.51
2023-04-18T09:46:38.474Z,94.85
2023-04-18T10:01:39.359Z,91.40
2023-04-18T10:16:40.440Z,89.36
2023-04-18T10:31:41.352Z,85.44
2023-04-18T10:46:41.239Z,84.38
2023-04-18T11:01:42.332Z,84.78
2023-04-18T11:16:42.277Z,82.62
2023-04-18T11:31:42.478Z,84.72
2023-04-18T11:46:43.059Z,84.69
2023-04-18T12:01:44.282Z,84.55
2023-04-18T12:16:45.459Z,84.44
2023-04-18T12:31:46.624Z,86.31
2023-04-18T12:46:47.344Z,84.41
2023-04-18T13:01:47.705Z,83.49
2023-04-18T13:16:47.856Z,85.31
2023-04-18T13:31:47.926Z,83.33
2023-04-18T13:46:48.501Z,84.24
2023-04-18T14:01:49.762Z,81.29
2023-04-18T14:16:50.404Z,79.60
2023-04-18T14:31:51.035Z,81.52
2023-04-18T14:46:51.803Z,81.12
2023-04-18T15:01:52.007Z,79.57
2023-04-18T15:16:52.206Z,79.03
2023-04-18T15:31:52.229Z,81.37
2023-04-18T15:46:52.852Z,75.19
2023-04-18T16:01:53.672Z,76.00
2023-04-18T16:16:54.041Z,77.19
2023-04-18T16:31:55.017Z,75.09
2023-04-18T16:47:12.579Z,78.82
2023-04-18T17:02:13.666Z,79.75
2023-04-18T17:17:14.855Z,83.12
2023-04-18T17:32:16.421Z,84.42
2023-04-18T17:47:16.934Z,85.32
2023-04-18T18:02:17.625Z,84.69
2023-04-18T18:17:19.019Z,85.28
2023-04-18T18:32:20.088Z,82.86
2023-04-18T18:47:20.608Z,80.44
2023-04-18T19:02:21.366Z,83.80
2023-04-18T19:17:21.880Z,86.25
2023-04-18T19:32:22.580Z,88.74
2023-04-18T19:47:23.259Z,91.55
2023-04-18T20:02:23.526Z,95.34
2023-04-18T20:17:24.261Z,98.93
2023-04-18T20:32:25.469Z,99.99
2023-04-18T20:47:26.186Z,99.99
2023-04-18T21:02:26.737Z,99.99
2023-04-18T21:17:27.247Z,99.99
2023-04-18T21:32:29.072Z,99.99
2023-04-18T21:47:29.203Z,99.99
2023-04-18T22:02:29.892Z,99.99
2023-04-18T22:17:30.500Z,99.99
2023-04-18T22:32:31.241Z,99.99
2023-04-18T22:47:31.909Z,99.99
2023-04-18T23:02:32.791Z,99.99
2023-04-18T23:17:33.035Z,99.99
2023-04-18T23:32:34.033Z,97.89
2023-04-18T23:47:35.151Z,92.58
